METAR Data
IDs: Format: Raw Decoded Include TAF

Data at: 1512 UTC 12 Dec 2018

PACV 121453Z 11003KT 10SM FEW023 BKN037 OVC050 01/M03 A2911 RMK AO2 SNB23E41 SLP857 P0000 60000 T00061033 51015
PACV 121353Z 07005KT 10SM SCT050 OVC060 01/M03 A2910 RMK AO2 SLP853 T00061028
PACV 121253Z 13003KT 10SM FEW043 OVC055 01/M04 A2908 RMK AO2 SNE34 SLP849 P0000 T00061039
PACV 121153Z COR 09004KT 7SM -SN OVC042 01/M03 A2906 RMK AO2 SLP842 4/003 P0000 60004 70050 T00111028 10017 20006 51025
PACV 121053Z 17004KT 9SM -SN BKN045 BKN055 OVC075 02/M03 A2904 RMK AO2 SNB00E12B28 SLP835 P0000 T00171028
PACV 120953Z 18005KT 10SM OVC050 02/M03 A2902 RMK AO2 UPB03E06SNE03B06E28 SLP827 P0000 T00171028
PACV 120934Z 17006KT 10SM FEW029 SCT042 OVC050 02/M03 A2900 RMK AO2 UPB03E06SNE03B06E28 P0000 T00171028
PACV 120853Z 12005KT 3SM -SN BR BKN021 BKN033 OVC050 01/M01 A2899 RMK AO2 SNB0758 SLP817 P0002 60004 T00111011 400330006 53033
PACV 120753Z 12005KT 10SM BKN021 BKN030 OVC047 01/M01 A2896 RMK AO2 SNE34 SLP805 P0001 T00111006
PACV 120722Z VRB06KT 3SM -SN BR BKN017 OVC029 01/M01 A2893 RMK AO2 P0001 T00111011
PACV 120712Z 15005KT 2 1/2SM -SN BR BKN014 OVC023 01/M01 A2893 RMK AO2 P0000 T00111006
PACV 120653Z 15004KT 8SM -SN SCT019 BKN024 OVC050 01/M01 A2892 RMK AO2 SNE27B53 SLP792 P0001 T00111006
PACV 120631Z 10004KT 9SM FEW023 BKN035 OVC055 01/00 A2891 RMK AO2 SNE27 P0001 T00110000
PACV 120614Z 12003KT 4SM -SN BR BKN015 BKN025 OVC041 01/00 A2890 RMK AO2 P0001 T00110000
PACV 120553Z 13006KT 1 1/2SM -SN BR BKN021 OVC035 01/M01 A2889 RMK AO2 SNE31B47 SLP784 4/003 P0002 60013 T00111006 10017 20006 53015
PACV 120551Z 13007KT 2SM -SN BR BKN024 OVC035 01/M01 A2889 RMK AO2 SNE31B47 4/003 P0001
PACV 120540Z 11005KT 10SM FEW022 FEW027 OVC035 01/00 A2888 RMK AO2 SNE31 P0001 T00110000
PACV 120528Z 11007KT 5SM -SN BR FEW012 BKN023 OVC030 01/00 A2888 RMK AO2 P0001 T00110000
PACV 120512Z 13005KT 2 1/2SM -SN BR BKN015 OVC023 01/M01 A2887 RMK AO2 VIS 1 3/4V4 P0000 T00111006
PACV 120453Z 16005KT 2 1/2SM -SN BR SCT006 OVC013 01/M01 A2887 RMK AO2 VIS 2V3 RAB13E15 SLP775 P0004 T00111006
PACV 120445Z 15005KT 3SM -SN BR SCT006 OVC013 01/M01 A2886 RMK AO2 RAB13E15 P0003 T00111006
PACV 120438Z 17005KT 2 1/2SM -SN BR FEW007 OVC013 01/M01 A2886 RMK AO2 VIS 1 1/2V5 RAB13E15 P0003 T00111006
PACV 120432Z 16003KT 1 3/4SM -SN BR OVC015 01/M01 A2886 RMK AO2 RAB13E15 P0002 T00111006
PACV 120425Z 12006KT 3SM -SN BR FEW007 OVC015 01/00 A2885 RMK AO2 RAB13E15 P0001 T00110000
PACV 120409Z 00000KT 7SM -SN FEW007 BKN013 OVC018 01/00 A2885 RMK AO2 P0000 T00110000
PACV 120401Z 00000KT 2SM R27/5000VP6000FT -SN BR FEW008 OVC013 01/00 A2885 RMK AO2 VIS 1V5 P0000 T00110000
PACV 120353Z 00000KT 1 1/2SM R27/6000VP6000FT -SN BR OVC013 01/00 A2885 RMK AO2 SLP770 P0004 T00110000
PACV 120350Z 00000KT 2SM -SN BR OVC015 01/M01 A2885 RMK AO2 P0003
PACV 120253Z 10004KT 8SM -SN OVC021 02/00 A2884 RMK AO2 RAB12E13 SLP766 P0003 60003 T00170000 53013
PACV 120153Z 10007KT 4SM -SN BR BKN017 OVC024 02/00 A2882 RMK AO2 SNB40 SLP760 P0000 T00170000
PACV 120107Z 00000KT 10SM FEW023 FEW028 BKN043 01/M01 A2881 RMK AO2 T00111006
PACV 120053Z 07003KT 10SM FEW023 BKN028 OVC046 02/00 A2880 RMK AO2 SLP754 T00170000
PACV 112353Z 06004KT 10SM FEW011 BKN017 OVC035 02/00 A2880 RMK AO2 SLP752 4/002 60009 T00170000 10022 20011 51008
PACV 112314Z 07003KT 10SM FEW006 BKN017 OVC035 02/00 A2880 RMK AO2 T00170000
PACV 112253Z 08004KT 10SM BKN034 BKN042 02/00 A2880 RMK AO2 RAB17E26UPB19E22SNE17 SLP752 P0002 T00170000
PACV 112235Z 06005KT 10SM FEW009 SCT020 BKN037 02/00 A2880 RMK AO2 RAB17E26UPB19E22SNE17 P0002 T00170000
PACV 112153Z 11004KT 3SM -SN BR OVC018 01/00 A2879 RMK AO2 UPB33E37RAB37E44SNE05B44 SLP750 P0002 T00110000
PACV 112133Z 11003KT 10SM UP BKN020 OVC035 01/00 A2879 RMK AO2 UPB33SNE05 P0000 T00110000
PACV 112110Z 05004KT 9SM FEW028 BKN037 OVC110 01/00 A2878 RMK AO2 SNE05 P0000 T00110000
PACV 112053Z 36003KT 7SM -SN FEW017 BKN025 OVC050 01/00 A2877 RMK AO2 RAB38E51SNB28E38B51 SLP744 P0004 60005 T00110000 51017
PACV 112042Z 02003KT 3SM R27/6000VP6000FT -RA BR BKN017 OVC033 01/00 A2877 RMK AO2 RAB38SNB28E38 P0004 T00110000
PACV 112033Z 00000KT 1 3/4SM -SN BR BKN015 BKN020 BKN043 01/00 A2877 RMK AO2 SNB28 P0003 T00110000
PACV 111953Z 00000KT 10SM FEW011 BKN029 OVC050 02/00 A2876 RMK AO2 RAE23 SLP740 P0000 T00170000
PACV 111853Z 29003KT 10SM -RA FEW020 BKN026 OVC032 02/00 A2875 RMK AO2 UPB1759E01 SLP736 P0001 T00170000
PACV 111805Z 05005KT 10SM -RA FEW022 BKN034 OVC042 02/01 A2873 RMK AO2 UPB1759E01 P0000 T00220006
PACV 111753Z 06005KT 10SM -RA BKN023 BKN029 OVC038 02/01 A2872 RMK AO2 UPB08E11 SLP727 4/002 P0002 60024 T00220006 10033 20011 51014
PACV 111727Z 10004KT 7SM -RA BKN024 BKN031 OVC038 03/01 A2872 RMK AO2 UPB08E11 P0002 T00280006
PACV 111653Z 08007KT 8SM -RA BKN033 02/00 A2871 RMK AO2 RAE28B47 SLP722 P0000 T00170000
PACV 111636Z 06004KT 10SM FEW024 SCT030 BKN041 02/00 A2871 RMK AO2 RAE28 P0000 T00170000
PACV 111553Z 10003KT 8SM -RA BKN023 OVC029 02/00 A2870 RMK AO2 RAE1455B15 SLP718 P0008 T00170000
PACV 111453Z 08007KT 10SM -RA SCT019 BKN029 OVC042 02/00 A2868 RMK AO2 SLP713 RAB24SNE24 P0002 60014 T00170000 51027
PACV 111353Z 11007KT 5SM -SN BR FEW009 FEW015 OVC023 02/M01 A2867 RMK AO2 UPB1258E00RAB00E06SNB01 SLP709 P0012 T00171006
PACV 111342Z 11007KT 9SM -SN FEW010 OVC025 02/M01 A2866 RMK AO2 UPB1258E00RAB00E06SNB01 P0011 T00171006
PACV 111335Z 10008KT 2 1/2SM -SN BR FEW008 OVC016 01/M01 A2865 RMK AO2 UPB1258E00RAB00E06SNB01 P0011 T00111006
PACV 111325Z 10006KT 1SM R27/P6000FT -SN BR VV013 01/M01 A2866 RMK AO2 UPB1258E00RAB00E06SNB01 P0010 T00111006
PACV 111315Z 09007KT 1SM R27/P6000FT -SN BR BKN015 OVC023 01/M01 A2865 RMK AO2 UPB1258E00RAB00E06SNB01 P0006 T00111006
PACV 111307Z 10008KT 2 1/2SM -SN BR OVC026 01/M01 A2865 RMK AO2 UPB1258E00RAB00E06SNB01 P0002 T00111006
PACV 111253Z 09006KT 10SM FEW023 SCT029 OVC049 02/M01 A2864 RMK AO2 RAE32 SLP700 P0000 T00171006
PACV 111239Z 05003KT 10SM SCT029 OVC038 02/M01 A2863 RMK AO2 RAE32 P0000 T00171006
PACV 111202Z 18010KT 10SM -RA SCT013 OVC019 03/00 A2861 RMK AO2 P0000 T00280000
PACV 111153Z 18011G23KT 8SM -RA OVC013 02/00 A2860 RMK AO2 WSHFT 1133 RAB46SNE46 PRESRR SLP686 4/003 P0009 60050 70065 T00220000 10044 20006 51062
PACV 111140Z 15013G21KT 3SM -SN BR OVC011 02/M01 A2858 RMK AO2 P0008 T00171006
PACV 111135Z 13010G20KT 1 1/4SM R27/6000VP6000FT -SN BR OVC009 01/M01 A2858 RMK AO2 P0008 T00111006
PACV 111126Z 10009KT 3/4SM R27/5000VP6000FT -SN BR VV009 01/M01 A2858 RMK AO2 P0006 T00061006
PACV 111053Z 11007KT 1/2SM R27/3000V4000FT SN FG VV005 01/M01 A2855 RMK AO2 SLP668 SNINCR 3/03 P0015 T00061006
PACV 111026Z 14006KT 1/4SM R27/2400V5000FT +SN FG VV007 01/M01 A2853 RMK AO2 PRESRR P0008 T00061006
PACV 111017Z 13007KT 3/4SM R27/4000V5000FT -SN BR VV008 01/M01 A2851 RMK AO2 PRESRR P0005 T00061006
PACV 111004Z 12006KT 1/2SM R27/4500V5500FT SN FG VV007 01/M01 A2850 RMK AO2 PRESRR P0003 T00061006
PACV 110953Z 11005KT 3/4SM R27/5000VP6000FT -SN BR VV008 01/M01 A2848 RMK AO2 RAE31SNB31 SLP645 P0015 T00061006
PACV 110950Z 11005KT 3/4SM R27/5000VP6000FT -SN BR VV009 01/M01 A2848 RMK AO2 RAE31SNB31 P0014
PACV 110942Z 13003KT 1 3/4SM -SN BR OVC012 02/00 A2847 RMK AO2 RAE31SNB31 PRESRR P0011 T00170000
PACV 110929Z 20004KT 5SM RA BR OVC014 02/01 A2846 RMK AO2 PRESRR P0008 T00220006
PACV 110853Z 27003KT 5SM -RA BR OVC020 03/02 A2842 RMK AO2 SLP623 P0007 60011 T00280017 400440017 55011
PACV 110753Z 00000KT 8SM -RA OVC026 03/02 A2841 RMK AO2 SLP620 P0002 T00330017
PACV 110743Z 28003KT 10SM -RA FEW023 OVC028 04/01 A2840 RMK AO2 P0001 T00390011
PACV 110653Z 31008KT 10SM -RA OVC034 04/01 A2841 RMK AO2 SLP621 P0002 T00390011
PACV 110639Z 32007KT 10SM -RA OVC030 04/01 A2842 RMK AO2 P0002 T00390011
PACV 110553Z 34006KT 7SM -RA OVC029 04/01 A2845 RMK AO2 SLP634 P0002 60005 T00390011 10044 20028 56049
PACV 110453Z 00000KT 10SM -RA OVC034 04/02 A2849 RMK AO2 SLP647 P0001 T00440017
PACV 110353Z 03005KT 10SM -RA OVC034 04/01 A2854 RMK AO2 SLP666 P0001 T00390011